Airfield :
LOGIN :

Register | Disclaimer

   EN    FR    IT 

 










Legend :    VFR   Marginal VFR   IFR   Intensive IFR   Very Intensive IFR
Visi :
Ceiling :
>= 8 km
>= 3000ft
5 to 8 km
1000 to 3000 ft
1500m to 5 km
500 to 1000 ft
800 to 1500m
200 to 500 ft
< 800m
< 200 ft
Symbols :   Thunderstorms  Fog  Heavy snow  Heavy precipitations  Wind > 20 kt
SIGMETs :     Misc.  Thunderstorms  Icing  Turbulence  Mountain Waves  Volcanic Ashes







- Airport Elevation : 392 ft
- IATA code : CDG
- Download approach charts


LFPG - Paris-Aeroport Charles De Gaulle

CURRENT METAR :
  • 240830Z 25013KT 9999 FEW036 21/11 Q1020 NOSIG

EXPIRED METARs :
  • 240800Z 25011KT 9999 FEW036 SCT048 20/11 Q1020 NOSIG
  • 240730Z 24010KT 210V270 9999 FEW038 BKN048 19/11 Q1020 NOSIG
  • 240700Z 24009KT 210V270 9999 FEW034 BKN048 18/11 Q1020 NOSIG
  • 240630Z 24008KT 9999 BKN048 18/11 Q1020 NOSIG
  • 240600Z 24008KT 9999 BKN047 17/12 Q1020 NOSIG

TAF TAF LFPG
Valid from the 23 at 18:00 until the 25 at 00:00 UTC


231700Z 2318/2424 30010KT CAVOK
BECMG 2403/2405 24005KT TX28/2415Z TN15/2404Z
ATIS : +33 1 48 62 10 92
No reported NOTAMs for that airfield.



MET'MAP, your aeronautical weather chart ! - Copyright ORBIFLY December 2007 - Disclaimer

ORBIFLY MET'MAP TEAM :

Programming & Development : Alexandra Zaïnal
Concept & Development : Baudouin d'Aumeries
Co-Development & Prog : Marc-Olivier Méhu
Technical & hardware support : Manuel Goepfert

Contact : metmap@orbifly.com




SOURCES & CREDITS :

   NOAA